sensor_id;sensor_type;location;lat;lon;timestamp;temperature;humidity
6764;DHT22;47432;48.760;9.178;2023-07-31T00:00:39;17.30;99.90
6764;DHT22;47432;48.760;9.178;2023-07-31T00:03:07;17.20;99.90
6764;DHT22;47432;48.760;9.178;2023-07-31T00:05:33;17.10;99.90
6764;DHT22;47432;48.760;9.178;2023-07-31T00:07:59;17.10;99.90
6764;DHT22;47432;48.760;9.178;2023-07-31T00:10:24;17.10;99.90
6764;DHT22;47432;48.760;9.178;2023-07-31T00:12:50;17.10;99.90
6764;DHT22;47432;48.760;9.178;2023-07-31T00:15:16;17.00;99.90
6764;DHT22;47432;48.760;9.178;2023-07-31T00:17:42;17.00;99.90
6764;DHT22;47432;48.760;9.178;2023-07-31T00:20:08;17.00;99.90
6764;DHT22;47432;48.760;9.178;2023-07-31T00:22:34;16.90;99.90
6764;DHT22;47432;48.760;9.178;2023-07-31T00:24:59;16.90;99.90
6764;DHT22;47432;48.760;9.178;2023-07-31T00:27:25;16.80;99.90
6764;DHT22;47432;48.760;9.178;2023-07-31T00:29:51;16.80;99.90
6764;DHT22;47432;48.760;9.178;2023-07-31T00:32:17;16.80;99.90
6764;DHT22;47432;48.760;9.178;2023-07-31T00:34:45;16.80;99.90
6764;DHT22;47432;48.760;9.178;2023-07-31T00:37:11;16.70;99.90
6764;DHT22;47432;48.760;9.178;2023-07-31T00:39:39;16.70;99.90
6764;DHT22;47432;48.760;9.178;2023-07-31T00:42:05;16.60;99.90
6764;DHT22;47432;48.760;9.178;2023-07-31T00:44:31;16.60;99.90
6764;DHT22;47432;48.760;9.178;2023-07-31T00:46:56;16.50;99.90
6764;DHT22;47432;48.760;9.178;2023-07-31T00:49:25;16.50;99.90
6764;DHT22;47432;48.760;9.178;2023-07-31T00:51:51;16.60;99.90
6764;DHT22;47432;48.760;9.178;2023-07-31T00:54:17;16.60;99.90
6764;DHT22;47432;48.760;9.178;2023-07-31T00:56:45;16.50;99.90
6764;DHT22;47432;48.760;9.178;2023-07-31T00:59:11;16.50;99.90
6764;DHT22;47432;48.760;9.178;2023-07-31T01:01:37;16.40;99.90
6764;DHT22;47432;48.760;9.178;2023-07-31T01:04:03;16.30;99.90
6764;DHT22;47432;48.760;9.178;2023-07-31T01:06:52;16.30;99.90
6764;DHT22;47432;48.760;9.178;2023-07-31T01:12:21;16.30;99.90
6764;DHT22;47432;48.760;9.178;2023-07-31T01:15:08;16.20;99.90
6764;DHT22;47432;48.760;9.178;2023-07-31T01:17:41;16.20;99.90
6764;DHT22;47432;48.760;9.178;2023-07-31T01:20:24;16.30;99.90
6764;DHT22;47432;48.760;9.178;2023-07-31T01:28:48;13.60;99.90
6764;DHT22;47432;48.760;9.178;2023-07-31T01:31:24;16.30;99.90
6764;DHT22;47432;48.760;9.178;2023-07-31T01:33:53;16.30;99.90
6764;DHT22;47432;48.760;9.178;2023-07-31T01:36:20;16.30;99.90
6764;DHT22;47432;48.760;9.178;2023-07-31T01:38:46;16.30;99.90
6764;DHT22;47432;48.760;9.178;2023-07-31T01:41:11;16.30;99.90
6764;DHT22;47432;48.760;9.178;2023-07-31T01:43:37;16.30;99.90
6764;DHT22;47432;48.760;9.178;2023-07-31T01:46:05;16.30;99.90
6764;DHT22;47432;48.760;9.178;2023-07-31T01:48:31;16.30;99.90
6764;DHT22;47432;48.760;9.178;2023-07-31T01:51:01;16.30;99.90
6764;DHT22;47432;48.760;9.178;2023-07-31T01:53:27;16.30;99.90
6764;DHT22;47432;48.760;9.178;2023-07-31T01:55:53;16.30;99.90
6764;DHT22;47432;48.760;9.178;2023-07-31T01:58:19;16.30;99.90
6764;DHT22;47432;48.760;9.178;2023-07-31T02:00:44;16.30;99.90
6764;DHT22;47432;48.760;9.178;2023-07-31T02:03:11;16.40;99.90
6764;DHT22;47432;48.760;9.178;2023-07-31T02:05:46;16.40;99.90
6764;DHT22;47432;48.760;9.178;2023-07-31T02:08:13;16.40;99.90
6764;DHT22;47432;48.760;9.178;2023-07-31T02:10:40;16.40;99.90
6764;DHT22;47432;48.760;9.178;2023-07-31T02:13:05;16.40;99.90
6764;DHT22;47432;48.760;9.178;2023-07-31T02:15:31;16.40;99.90
6764;DHT22;47432;48.760;9.178;2023-07-31T02:17:57;16.50;99.90
6764;DHT22;47432;48.760;9.178;2023-07-31T02:20:23;16.60;99.90
6764;DHT22;47432;48.760;9.178;2023-07-31T02:22:49;16.50;99.90
6764;DHT22;47432;48.760;9.178;2023-07-31T02:25:15;16.60;99.90
6764;DHT22;47432;48.760;9.178;2023-07-31T02:27:41;16.60;99.90
6764;DHT22;47432;48.760;9.178;2023-07-31T02:30:07;16.60;99.90
6764;DHT22;47432;48.760;9.178;2023-07-31T02:32:33;16.60;99.90
6764;DHT22;47432;48.760;9.178;2023-07-31T02:34:59;16.50;99.90
6764;DHT22;47432;48.760;9.178;2023-07-31T02:37:25;16.50;99.90
6764;DHT22;47432;48.760;9.178;2023-07-31T02:39:51;16.50;99.90
6764;DHT22;47432;48.760;9.178;2023-07-31T02:42:17;16.50;99.90
6764;DHT22;47432;48.760;9.178;2023-07-31T02:44:42;16.40;99.90
6764;DHT22;47432;48.760;9.178;2023-07-31T02:47:08;16.40;99.90
6764;DHT22;47432;48.760;9.178;2023-07-31T02:49:34;16.40;99.90
6764;DHT22;47432;48.760;9.178;2023-07-31T02:52:00;16.40;99.90
6764;DHT22;47432;48.760;9.178;2023-07-31T02:54:25;16.30;99.90
6764;DHT22;47432;48.760;9.178;2023-07-31T02:56:51;16.30;99.90
6764;DHT22;47432;48.760;9.178;2023-07-31T02:59:17;16.20;99.90
6764;DHT22;47432;48.760;9.178;2023-07-31T03:01:43;16.20;99.90
6764;DHT22;47432;48.760;9.178;2023-07-31T03:04:09;16.20;99.90
6764;DHT22;47432;48.760;9.178;2023-07-31T03:06:35;16.10;99.90
6764;DHT22;47432;48.760;9.178;2023-07-31T03:09:01;16.10;99.90
6764;DHT22;47432;48.760;9.178;2023-07-31T03:11:26;16.10;99.90
6764;DHT22;47432;48.760;9.178;2023-07-31T03:13:52;15.90;99.90
6764;DHT22;47432;48.760;9.178;2023-07-31T03:16:20;15.90;99.90
6764;DHT22;47432;48.760;9.178;2023-07-31T03:18:45;15.90;99.90
6764;DHT22;47432;48.760;9.178;2023-07-31T03:21:12;15.90;99.90
6764;DHT22;47432;48.760;9.178;2023-07-31T03:23:38;16.00;99.90
6764;DHT22;47432;48.760;9.178;2023-07-31T03:26:06;15.90;99.90
6764;DHT22;47432;48.760;9.178;2023-07-31T03:28:33;16.00;99.90
6764;DHT22;47432;48.760;9.178;2023-07-31T03:30:59;16.00;99.90
6764;DHT22;47432;48.760;9.178;2023-07-31T03:33:26;16.00;99.90
6764;DHT22;47432;48.760;9.178;2023-07-31T03:35:54;16.10;99.90
6764;DHT22;47432;48.760;9.178;2023-07-31T03:38:22;16.10;99.90
6764;DHT22;47432;48.760;9.178;2023-07-31T03:40:48;16.10;99.90
6764;DHT22;47432;48.760;9.178;2023-07-31T03:43:15;16.10;99.90
6764;DHT22;47432;48.760;9.178;2023-07-31T03:45:41;16.10;99.90
6764;DHT22;47432;48.760;9.178;2023-07-31T03:48:06;16.10;99.90
6764;DHT22;47432;48.760;9.178;2023-07-31T03:50:33;16.10;99.90
6764;DHT22;47432;48.760;9.178;2023-07-31T03:52:59;16.20;99.90
6764;DHT22;47432;48.760;9.178;2023-07-31T03:55:24;16.30;99.90
6764;DHT22;47432;48.760;9.178;2023-07-31T03:57:50;16.30;99.90
6764;DHT22;47432;48.760;9.178;2023-07-31T04:00:16;16.40;99.90
6764;DHT22;47432;48.760;9.178;2023-07-31T04:02:42;16.40;99.90
6764;DHT22;47432;48.760;9.178;2023-07-31T04:05:09;16.30;99.90
6764;DHT22;47432;48.760;9.178;2023-07-31T04:07:36;16.50;99.90
6764;DHT22;47432;48.760;9.178;2023-07-31T04:10:02;16.50;99.90
6764;DHT22;47432;48.760;9.178;2023-07-31T04:12:28;16.60;99.90
6764;DHT22;47432;48.760;9.178;2023-07-31T04:14:54;16.60;99.90
6764;DHT22;47432;48.760;9.178;2023-07-31T04:17:20;16.70;99.90
6764;DHT22;47432;48.760;9.178;2023-07-31T04:19:45;16.80;99.90
6764;DHT22;47432;48.760;9.178;2023-07-31T04:22:13;16.90;99.90
6764;DHT22;47432;48.760;9.178;2023-07-31T04:24:39;17.00;99.90
6764;DHT22;47432;48.760;9.178;2023-07-31T04:27:05;17.00;99.90
6764;DHT22;47432;48.760;9.178;2023-07-31T04:29:31;17.00;99.90
6764;DHT22;47432;48.760;9.178;2023-07-31T04:31:57;17.10;99.90
6764;DHT22;47432;48.760;9.178;2023-07-31T04:34:22;17.10;99.90
6764;DHT22;47432;48.760;9.178;2023-07-31T04:36:48;17.10;99.90
6764;DHT22;47432;48.760;9.178;2023-07-31T04:39:16;17.30;99.90
6764;DHT22;47432;48.760;9.178;2023-07-31T04:41:41;17.30;99.90
6764;DHT22;47432;48.760;9.178;2023-07-31T04:44:10;17.30;99.90
6764;DHT22;47432;48.760;9.178;2023-07-31T04:46:36;17.40;99.90
6764;DHT22;47432;48.760;9.178;2023-07-31T04:49:05;17.40;99.90
6764;DHT22;47432;48.760;9.178;2023-07-31T04:51:30;17.50;99.90
6764;DHT22;47432;48.760;9.178;2023-07-31T04:53:56;17.50;99.90
6764;DHT22;47432;48.760;9.178;2023-07-31T04:56:22;17.50;99.90
6764;DHT22;47432;48.760;9.178;2023-07-31T04:58:48;17.60;99.90
6764;DHT22;47432;48.760;9.178;2023-07-31T05:01:13;17.60;99.90
6764;DHT22;47432;48.760;9.178;2023-07-31T05:03:39;17.70;99.90
6764;DHT22;47432;48.760;9.178;2023-07-31T05:06:05;17.70;99.90
6764;DHT22;47432;48.760;9.178;2023-07-31T05:08:33;17.70;99.90
6764;DHT22;47432;48.760;9.178;2023-07-31T05:10:59;17.80;99.90
6764;DHT22;47432;48.760;9.178;2023-07-31T05:13:24;17.80;99.90
6764;DHT22;47432;48.760;9.178;2023-07-31T05:15:50;17.80;99.90
6764;DHT22;47432;48.760;9.178;2023-07-31T05:18:16;17.80;99.90
6764;DHT22;47432;48.760;9.178;2023-07-31T05:20:41;17.80;99.90
6764;DHT22;47432;48.760;9.178;2023-07-31T05:23:07;17.80;99.90
6764;DHT22;47432;48.760;9.178;2023-07-31T05:25:33;17.80;99.90
6764;DHT22;47432;48.760;9.178;2023-07-31T05:27:58;17.80;99.90
6764;DHT22;47432;48.760;9.178;2023-07-31T05:30:24;17.80;99.90
6764;DHT22;47432;48.760;9.178;2023-07-31T05:32:50;17.90;99.90
6764;DHT22;47432;48.760;9.178;2023-07-31T05:35:16;18.00;99.90
6764;DHT22;47432;48.760;9.178;2023-07-31T05:37:41;18.00;99.90
6764;DHT22;47432;48.760;9.178;2023-07-31T05:40:07;18.00;99.90
6764;DHT22;47432;48.760;9.178;2023-07-31T05:42:33;18.10;99.90
6764;DHT22;47432;48.760;9.178;2023-07-31T05:45:00;18.10;99.90
6764;DHT22;47432;48.760;9.178;2023-07-31T05:47:25;18.20;99.90
6764;DHT22;47432;48.760;9.178;2023-07-31T05:49:51;18.30;99.90
6764;DHT22;47432;48.760;9.178;2023-07-31T05:52:21;18.50;99.90
6764;DHT22;47432;48.760;9.178;2023-07-31T05:54:46;18.50;99.90
6764;DHT22;47432;48.760;9.178;2023-07-31T05:57:12;18.60;99.90
6764;DHT22;47432;48.760;9.178;2023-07-31T05:59:38;18.70;99.90
6764;DHT22;47432;48.760;9.178;2023-07-31T06:02:04;18.90;99.90
6764;DHT22;47432;48.760;9.178;2023-07-31T06:04:30;19.00;99.90
6764;DHT22;47432;48.760;9.178;2023-07-31T06:06:58;19.10;99.90
6764;DHT22;47432;48.760;9.178;2023-07-31T06:09:24;19.10;99.90
6764;DHT22;47432;48.760;9.178;2023-07-31T06:11:51;19.30;99.90
6764;DHT22;47432;48.760;9.178;2023-07-31T06:14:17;19.50;99.90
6764;DHT22;47432;48.760;9.178;2023-07-31T06:16:43;19.70;99.90
6764;DHT22;47432;48.760;9.178;2023-07-31T06:19:09;19.80;99.90
6764;DHT22;47432;48.760;9.178;2023-07-31T06:21:36;20.00;99.90
6764;DHT22;47432;48.760;9.178;2023-07-31T06:24:08;19.80;99.90
6764;DHT22;47432;48.760;9.178;2023-07-31T06:26:33;20.00;99.90
6764;DHT22;47432;48.760;9.178;2023-07-31T06:28:59;19.70;99.90
6764;DHT22;47432;48.760;9.178;2023-07-31T06:31:25;19.90;99.90
6764;DHT22;47432;48.760;9.178;2023-07-31T06:33:51;20.00;99.90
6764;DHT22;47432;48.760;9.178;2023-07-31T06:36:18;20.20;99.90
6764;DHT22;47432;48.760;9.178;2023-07-31T06:38:44;20.30;99.90
6764;DHT22;47432;48.760;9.178;2023-07-31T06:41:09;20.30;99.90
6764;DHT22;47432;48.760;9.178;2023-07-31T06:43:36;20.40;99.90
6764;DHT22;47432;48.760;9.178;2023-07-31T06:46:06;20.40;99.90
6764;DHT22;47432;48.760;9.178;2023-07-31T06:48:33;19.90;99.90
6764;DHT22;47432;48.760;9.178;2023-07-31T06:51:00;20.00;99.90
6764;DHT22;47432;48.760;9.178;2023-07-31T06:53:26;20.10;99.90
6764;DHT22;47432;48.760;9.178;2023-07-31T06:55:51;20.30;99.90
6764;DHT22;47432;48.760;9.178;2023-07-31T06:58:17;20.40;99.90
6764;DHT22;47432;48.760;9.178;2023-07-31T07:00:43;20.40;99.90
6764;DHT22;47432;48.760;9.178;2023-07-31T07:03:09;20.50;99.90
6764;DHT22;47432;48.760;9.178;2023-07-31T07:05:35;20.70;99.90
6764;DHT22;47432;48.760;9.178;2023-07-31T07:08:01;20.90;99.90
6764;DHT22;47432;48.760;9.178;2023-07-31T07:10:26;21.10;99.90
6764;DHT22;47432;48.760;9.178;2023-07-31T07:12:52;21.00;99.90
6764;DHT22;47432;48.760;9.178;2023-07-31T07:15:18;20.90;99.90
6764;DHT22;47432;48.760;9.178;2023-07-31T07:17:44;21.00;99.90
6764;DHT22;47432;48.760;9.178;2023-07-31T07:20:10;21.00;99.90
6764;DHT22;47432;48.760;9.178;2023-07-31T07:22:35;21.30;99.90
6764;DHT22;47432;48.760;9.178;2023-07-31T07:25:02;21.30;99.90
6764;DHT22;47432;48.760;9.178;2023-07-31T07:27:28;21.50;99.90
6764;DHT22;47432;48.760;9.178;2023-07-31T07:29:54;21.80;99.90
6764;DHT22;47432;48.760;9.178;2023-07-31T07:32:21;21.70;99.90
6764;DHT22;47432;48.760;9.178;2023-07-31T07:34:50;21.60;99.90
6764;DHT22;47432;48.760;9.178;2023-07-31T07:37:16;21.70;99.90
6764;DHT22;47432;48.760;9.178;2023-07-31T07:39:41;21.70;99.90
6764;DHT22;47432;48.760;9.178;2023-07-31T07:42:07;21.40;99.90
6764;DHT22;47432;48.760;9.178;2023-07-31T07:44:33;21.30;99.90
6764;DHT22;47432;48.760;9.178;2023-07-31T07:46:59;21.50;99.90
6764;DHT22;47432;48.760;9.178;2023-07-31T07:49:24;21.40;99.90
6764;DHT22;47432;48.760;9.178;2023-07-31T07:51:50;21.60;99.90
6764;DHT22;47432;48.760;9.178;2023-07-31T07:54:16;21.70;99.90
6764;DHT22;47432;48.760;9.178;2023-07-31T07:56:42;21.60;99.90
6764;DHT22;47432;48.760;9.178;2023-07-31T07:59:08;21.60;99.90
6764;DHT22;47432;48.760;9.178;2023-07-31T08:01:36;21.70;99.90
6764;DHT22;47432;48.760;9.178;2023-07-31T08:04:02;21.70;99.90
6764;DHT22;47432;48.760;9.178;2023-07-31T08:06:28;21.60;99.90
6764;DHT22;47432;48.760;9.178;2023-07-31T08:08:57;21.60;99.90
6764;DHT22;47432;48.760;9.178;2023-07-31T08:13:49;21.90;99.90
6764;DHT22;47432;48.760;9.178;2023-07-31T08:16:15;21.70;99.90
6764;DHT22;47432;48.760;9.178;2023-07-31T08:18:41;21.60;99.90
6764;DHT22;47432;48.760;9.178;2023-07-31T08:21:08;21.70;99.90
6764;DHT22;47432;48.760;9.178;2023-07-31T08:23:34;21.80;99.90
6764;DHT22;47432;48.760;9.178;2023-07-31T08:25:59;21.50;99.90
6764;DHT22;47432;48.760;9.178;2023-07-31T08:28:25;21.70;99.90
6764;DHT22;47432;48.760;9.178;2023-07-31T08:30:51;21.50;99.90
6764;DHT22;47432;48.760;9.178;2023-07-31T08:33:16;21.60;99.90
6764;DHT22;47432;48.760;9.178;2023-07-31T08:35:44;21.90;99.90
6764;DHT22;47432;48.760;9.178;2023-07-31T08:38:12;22.10;99.90
6764;DHT22;47432;48.760;9.178;2023-07-31T08:40:37;22.00;99.90
6764;DHT22;47432;48.760;9.178;2023-07-31T08:43:04;22.20;99.90
6764;DHT22;47432;48.760;9.178;2023-07-31T08:45:30;22.40;99.80
6764;DHT22;47432;48.760;9.178;2023-07-31T08:47:57;22.60;99.90
6764;DHT22;47432;48.760;9.178;2023-07-31T08:50:24;22.90;99.80
6764;DHT22;47432;48.760;9.178;2023-07-31T08:52:51;23.10;99.40
6764;DHT22;47432;48.760;9.178;2023-07-31T08:55:17;23.00;99.60
6764;DHT22;47432;48.760;9.178;2023-07-31T08:57:51;23.20;99.60
6764;DHT22;47432;48.760;9.178;2023-07-31T09:00:20;23.50;99.10
6764;DHT22;47432;48.760;9.178;2023-07-31T09:03:03;23.30;98.70
6764;DHT22;47432;48.760;9.178;2023-07-31T09:05:33;23.20;98.10
6764;DHT22;47432;48.760;9.178;2023-07-31T09:08:02;22.70;98.70
6764;DHT22;47432;48.760;9.178;2023-07-31T09:10:29;22.20;98.90
6764;DHT22;47432;48.760;9.178;2023-07-31T09:12:56;22.30;99.30
6764;DHT22;47432;48.760;9.178;2023-07-31T09:15:23;22.50;99.50
6764;DHT22;47432;48.760;9.178;2023-07-31T09:18:01;22.80;99.40
6764;DHT22;47432;48.760;9.178;2023-07-31T09:20:28;22.80;98.70
6764;DHT22;47432;48.760;9.178;2023-07-31T09:22:55;22.70;99.10
6764;DHT22;47432;48.760;9.178;2023-07-31T09:25:25;22.40;98.80
6764;DHT22;47432;48.760;9.178;2023-07-31T09:28:01;22.60;99.80
6764;DHT22;47432;48.760;9.178;2023-07-31T09:30:28;22.80;99.30
6764;DHT22;47432;48.760;9.178;2023-07-31T09:33:03;22.50;99.10
6764;DHT22;47432;48.760;9.178;2023-07-31T09:35:35;22.50;99.70
6764;DHT22;47432;48.760;9.178;2023-07-31T09:38:06;22.70;99.30
6764;DHT22;47432;48.760;9.178;2023-07-31T09:40:40;22.70;99.40
6764;DHT22;47432;48.760;9.178;2023-07-31T09:43:09;22.80;98.90
6764;DHT22;47432;48.760;9.178;2023-07-31T09:45:41;22.60;99.20
6764;DHT22;47432;48.760;9.178;2023-07-31T09:48:08;22.50;99.30
6764;DHT22;47432;48.760;9.178;2023-07-31T09:50:37;22.60;99.90
6764;DHT22;47432;48.760;9.178;2023-07-31T09:53:07;22.80;98.80
6764;DHT22;47432;48.760;9.178;2023-07-31T09:55:34;23.10;99.40
6764;DHT22;47432;48.760;9.178;2023-07-31T09:58:06;23.20;99.20
6764;DHT22;47432;48.760;9.178;2023-07-31T10:00:33;23.30;99.10
6764;DHT22;47432;48.760;9.178;2023-07-31T10:03:04;23.60;99.00
6764;DHT22;47432;48.760;9.178;2023-07-31T10:05:34;23.80;97.90
6764;DHT22;47432;48.760;9.178;2023-07-31T10:08:02;23.80;97.60
6764;DHT22;47432;48.760;9.178;2023-07-31T10:10:31;24.00;97.30
6764;DHT22;47432;48.760;9.178;2023-07-31T10:12:57;24.00;98.10
6764;DHT22;47432;48.760;9.178;2023-07-31T10:15:25;24.30;97.80
6764;DHT22;47432;48.760;9.178;2023-07-31T10:17:52;24.50;97.50
6764;DHT22;47432;48.760;9.178;2023-07-31T10:20:20;24.30;97.10
6764;DHT22;47432;48.760;9.178;2023-07-31T10:22:46;24.00;97.00
6764;DHT22;47432;48.760;9.178;2023-07-31T10:25:14;23.80;97.40
6764;DHT22;47432;48.760;9.178;2023-07-31T10:27:41;23.90;97.10
6764;DHT22;47432;48.760;9.178;2023-07-31T10:30:12;24.10;97.20
6764;DHT22;47432;48.760;9.178;2023-07-31T10:32:41;24.10;97.20
6764;DHT22;47432;48.760;9.178;2023-07-31T10:35:09;24.30;97.40
6764;DHT22;47432;48.760;9.178;2023-07-31T10:37:39;24.30;97.20
6764;DHT22;47432;48.760;9.178;2023-07-31T10:40:17;24.10;96.50
6764;DHT22;47432;48.760;9.178;2023-07-31T10:42:49;24.20;96.80
6764;DHT22;47432;48.760;9.178;2023-07-31T10:48:02;24.60;95.80
6764;DHT22;47432;48.760;9.178;2023-07-31T10:50:30;24.60;95.90
6764;DHT22;47432;48.760;9.178;2023-07-31T10:52:59;24.70;95.80
6764;DHT22;47432;48.760;9.178;2023-07-31T10:55:42;24.00;96.20
6764;DHT22;47432;48.760;9.178;2023-07-31T10:58:12;23.80;97.00
6764;DHT22;47432;48.760;9.178;2023-07-31T11:00:43;23.80;96.80
6764;DHT22;47432;48.760;9.178;2023-07-31T11:03:15;23.80;96.30
6764;DHT22;47432;48.760;9.178;2023-07-31T11:08:20;23.90;96.00
6764;DHT22;47432;48.760;9.178;2023-07-31T11:13:39;24.30;96.60
6764;DHT22;47432;48.760;9.178;2023-07-31T11:16:12;24.60;97.20
6764;DHT22;47432;48.760;9.178;2023-07-31T11:18:40;24.80;95.70
6764;DHT22;47432;48.760;9.178;2023-07-31T11:21:07;24.80;95.20
6764;DHT22;47432;48.760;9.178;2023-07-31T11:23:36;24.80;95.70
6764;DHT22;47432;48.760;9.178;2023-07-31T11:26:04;24.90;95.40
6764;DHT22;47432;48.760;9.178;2023-07-31T11:28:34;25.10;96.10
6764;DHT22;47432;48.760;9.178;2023-07-31T11:31:02;25.40;95.80
6764;DHT22;47432;48.760;9.178;2023-07-31T11:33:28;25.30;95.20
6764;DHT22;47432;48.760;9.178;2023-07-31T11:35:53;25.20;95.00
6764;DHT22;47432;48.760;9.178;2023-07-31T11:38:31;25.00;94.60
6764;DHT22;47432;48.760;9.178;2023-07-31T11:41:03;24.80;94.90
6764;DHT22;47432;48.760;9.178;2023-07-31T11:43:32;24.60;95.90
6764;DHT22;47432;48.760;9.178;2023-07-31T11:45:59;25.10;95.10
6764;DHT22;47432;48.760;9.178;2023-07-31T11:48:30;25.10;95.40
6764;DHT22;47432;48.760;9.178;2023-07-31T11:51:00;25.40;95.90
6764;DHT22;47432;48.760;9.178;2023-07-31T11:53:42;25.70;95.10
6764;DHT22;47432;48.760;9.178;2023-07-31T11:56:16;25.90;94.70
6764;DHT22;47432;48.760;9.178;2023-07-31T11:58:45;25.90;94.70
6764;DHT22;47432;48.760;9.178;2023-07-31T12:01:14;25.90;95.40
6764;DHT22;47432;48.760;9.178;2023-07-31T12:03:40;25.60;95.20
6764;DHT22;47432;48.760;9.178;2023-07-31T12:06:08;25.10;94.80
6764;DHT22;47432;48.760;9.178;2023-07-31T12:08:34;24.80;95.20
6764;DHT22;47432;48.760;9.178;2023-07-31T12:11:03;25.00;96.20
6764;DHT22;47432;48.760;9.178;2023-07-31T12:13:33;25.30;96.50
6764;DHT22;47432;48.760;9.178;2023-07-31T12:16:00;25.20;95.50
6764;DHT22;47432;48.760;9.178;2023-07-31T12:18:30;25.10;95.40
6764;DHT22;47432;48.760;9.178;2023-07-31T12:21:01;25.10;95.40
6764;DHT22;47432;48.760;9.178;2023-07-31T12:23:30;25.20;95.80
6764;DHT22;47432;48.760;9.178;2023-07-31T12:28:41;24.70;95.50
6764;DHT22;47432;48.760;9.178;2023-07-31T12:31:11;24.50;96.40
6764;DHT22;47432;48.760;9.178;2023-07-31T12:33:39;24.40;96.10
6764;DHT22;47432;48.760;9.178;2023-07-31T12:36:13;24.50;96.80
6764;DHT22;47432;48.760;9.178;2023-07-31T12:38:41;24.50;95.40
6764;DHT22;47432;48.760;9.178;2023-07-31T12:41:07;23.80;96.10
6764;DHT22;47432;48.760;9.178;2023-07-31T12:43:37;23.90;96.60
6764;DHT22;47432;48.760;9.178;2023-07-31T12:46:05;23.80;95.90
6764;DHT22;47432;48.760;9.178;2023-07-31T12:48:33;23.60;95.60
6764;DHT22;47432;48.760;9.178;2023-07-31T12:50:59;23.30;96.50
6764;DHT22;47432;48.760;9.178;2023-07-31T12:53:25;23.30;96.60
6764;DHT22;47432;48.760;9.178;2023-07-31T12:55:51;23.50;96.70
6764;DHT22;47432;48.760;9.178;2023-07-31T12:58:17;23.60;97.30
6764;DHT22;47432;48.760;9.178;2023-07-31T13:00:42;23.80;97.70
6764;DHT22;47432;48.760;9.178;2023-07-31T13:03:08;23.80;96.50
6764;DHT22;47432;48.760;9.178;2023-07-31T13:05:34;24.00;96.60
6764;DHT22;47432;48.760;9.178;2023-07-31T13:08:00;24.20;96.50
6764;DHT22;47432;48.760;9.178;2023-07-31T13:10:27;24.30;96.60
6764;DHT22;47432;48.760;9.178;2023-07-31T13:12:54;24.20;96.70
6764;DHT22;47432;48.760;9.178;2023-07-31T13:15:20;24.60;96.50
6764;DHT22;47432;48.760;9.178;2023-07-31T13:17:48;24.60;97.00
6764;DHT22;47432;48.760;9.178;2023-07-31T13:20:13;24.80;96.40
6764;DHT22;47432;48.760;9.178;2023-07-31T13:22:39;24.80;95.80
6764;DHT22;47432;48.760;9.178;2023-07-31T13:25:06;25.10;95.30
6764;DHT22;47432;48.760;9.178;2023-07-31T13:27:32;25.20;95.70
6764;DHT22;47432;48.760;9.178;2023-07-31T13:29:58;25.20;95.30
6764;DHT22;47432;48.760;9.178;2023-07-31T13:32:26;25.80;94.60
6764;DHT22;47432;48.760;9.178;2023-07-31T13:34:52;26.10;94.00
6764;DHT22;47432;48.760;9.178;2023-07-31T13:37:17;26.10;94.30
6764;DHT22;47432;48.760;9.178;2023-07-31T13:39:43;26.40;94.40
6764;DHT22;47432;48.760;9.178;2023-07-31T13:42:09;26.40;93.80
6764;DHT22;47432;48.760;9.178;2023-07-31T13:44:38;26.00;94.00
6764;DHT22;47432;48.760;9.178;2023-07-31T13:47:07;25.80;94.40
6764;DHT22;47432;48.760;9.178;2023-07-31T13:49:37;26.00;94.60
6764;DHT22;47432;48.760;9.178;2023-07-31T13:52:04;26.40;94.20
6764;DHT22;47432;48.760;9.178;2023-07-31T13:54:30;26.30;94.10
6764;DHT22;47432;48.760;9.178;2023-07-31T13:56:58;26.00;94.00
6764;DHT22;47432;48.760;9.178;2023-07-31T13:59:24;25.70;94.40
6764;DHT22;47432;48.760;9.178;2023-07-31T14:01:50;25.20;95.40
6764;DHT22;47432;48.760;9.178;2023-07-31T14:04:18;25.20;95.30
6764;DHT22;47432;48.760;9.178;2023-07-31T14:06:44;24.70;95.60
6764;DHT22;47432;48.760;9.178;2023-07-31T14:09:10;24.50;96.00
6764;DHT22;47432;48.760;9.178;2023-07-31T14:11:36;24.20;96.30
6764;DHT22;47432;48.760;9.178;2023-07-31T14:14:01;24.20;96.30
6764;DHT22;47432;48.760;9.178;2023-07-31T14:16:27;24.30;96.00
6764;DHT22;47432;48.760;9.178;2023-07-31T14:18:56;24.50;96.20
6764;DHT22;47432;48.760;9.178;2023-07-31T14:21:25;24.70;96.10
6764;DHT22;47432;48.760;9.178;2023-07-31T14:23:51;24.90;96.20
6764;DHT22;47432;48.760;9.178;2023-07-31T14:26:17;25.00;96.30
6764;DHT22;47432;48.760;9.178;2023-07-31T14:28:43;25.20;95.50
6764;DHT22;47432;48.760;9.178;2023-07-31T14:31:08;25.40;95.90
6764;DHT22;47432;48.760;9.178;2023-07-31T14:33:34;25.50;96.10
6764;DHT22;47432;48.760;9.178;2023-07-31T14:36:00;25.90;95.90
6764;DHT22;47432;48.760;9.178;2023-07-31T14:38:26;25.90;95.90
6764;DHT22;47432;48.760;9.178;2023-07-31T14:40:52;26.00;95.40
6764;DHT22;47432;48.760;9.178;2023-07-31T14:43:20;25.80;95.20
6764;DHT22;47432;48.760;9.178;2023-07-31T14:45:45;25.60;95.40
6764;DHT22;47432;48.760;9.178;2023-07-31T14:48:12;25.70;95.30
6764;DHT22;47432;48.760;9.178;2023-07-31T14:50:38;25.80;95.30
6764;DHT22;47432;48.760;9.178;2023-07-31T14:53:04;25.80;95.10
6764;DHT22;47432;48.760;9.178;2023-07-31T14:55:29;25.60;95.10
6764;DHT22;47432;48.760;9.178;2023-07-31T14:57:55;25.50;94.90
6764;DHT22;47432;48.760;9.178;2023-07-31T15:00:21;25.80;95.70
6764;DHT22;47432;48.760;9.178;2023-07-31T15:02:47;26.20;93.80
6764;DHT22;47432;48.760;9.178;2023-07-31T15:05:13;26.50;94.20
6764;DHT22;47432;48.760;9.178;2023-07-31T15:07:40;26.70;93.80
6764;DHT22;47432;48.760;9.178;2023-07-31T15:10:07;27.00;92.60
6764;DHT22;47432;48.760;9.178;2023-07-31T15:12:33;27.00;93.00
6764;DHT22;47432;48.760;9.178;2023-07-31T15:14:58;27.40;92.00
6764;DHT22;47432;48.760;9.178;2023-07-31T15:17:24;27.70;92.00
6764;DHT22;47432;48.760;9.178;2023-07-31T15:19:50;27.50;91.30
6764;DHT22;47432;48.760;9.178;2023-07-31T15:22:16;27.30;91.40
6764;DHT22;47432;48.760;9.178;2023-07-31T15:24:42;27.20;91.80
6764;DHT22;47432;48.760;9.178;2023-07-31T15:27:09;27.10;92.30
6764;DHT22;47432;48.760;9.178;2023-07-31T15:29:35;27.30;91.90
6764;DHT22;47432;48.760;9.178;2023-07-31T15:32:05;27.40;91.10
6764;DHT22;47432;48.760;9.178;2023-07-31T15:34:31;28.10;90.90
6764;DHT22;47432;48.760;9.178;2023-07-31T15:36:57;29.00;90.40
6764;DHT22;47432;48.760;9.178;2023-07-31T15:39:22;29.50;89.10
6764;DHT22;47432;48.760;9.178;2023-07-31T15:41:51;30.00;88.80
6764;DHT22;47432;48.760;9.178;2023-07-31T15:44:18;30.30;89.40
6764;DHT22;47432;48.760;9.178;2023-07-31T15:46:47;30.60;86.00
6764;DHT22;47432;48.760;9.178;2023-07-31T15:49:13;30.50;85.70
6764;DHT22;47432;48.760;9.178;2023-07-31T15:51:39;30.50;82.40
6764;DHT22;47432;48.760;9.178;2023-07-31T15:54:04;30.00;83.80
6764;DHT22;47432;48.760;9.178;2023-07-31T15:56:30;29.00;86.60
6764;DHT22;47432;48.760;9.178;2023-07-31T15:58:56;28.50;87.10
6764;DHT22;47432;48.760;9.178;2023-07-31T16:01:24;28.10;88.00
6764;DHT22;47432;48.760;9.178;2023-07-31T16:03:50;28.20;88.90
6764;DHT22;47432;48.760;9.178;2023-07-31T16:06:18;28.70;87.00